sensor_id;sensor_type;location;lat;lon;timestamp;pressure;altitude;pressure_sealevel;temperature;humidity
55171;BME280;41060;47.510;8.680;2024-01-30T00:02:14;98618.38;;;2.15;61.51
55171;BME280;41060;47.510;8.680;2024-01-30T00:04:41;98623.41;;;2.24;60.83
55171;BME280;41060;47.510;8.680;2024-01-30T00:07:09;98629.44;;;2.26;60.34
55171;BME280;41060;47.510;8.680;2024-01-30T00:09:38;98624.06;;;2.32;60.31
55171;BME280;41060;47.510;8.680;2024-01-30T00:12:05;98623.84;;;2.41;61.11
55171;BME280;41060;47.510;8.680;2024-01-30T00:14:32;98624.31;;;2.60;60.13
55171;BME280;41060;47.510;8.680;2024-01-30T00:16:59;98620.53;;;2.70;60.43
55171;BME280;41060;47.510;8.680;2024-01-30T00:19:26;98619.38;;;2.83;59.54
55171;BME280;41060;47.510;8.680;2024-01-30T00:21:53;98620.00;;;2.57;59.16
55171;BME280;41060;47.510;8.680;2024-01-30T00:24:21;98626.56;;;2.38;60.96
55171;BME280;41060;47.510;8.680;2024-01-30T00:26:48;98625.88;;;2.30;60.57
55171;BME280;41060;47.510;8.680;2024-01-30T00:29:14;98622.72;;;2.14;61.17
55171;BME280;41060;47.510;8.680;2024-01-30T00:31:45;98630.31;;;2.25;60.87
55171;BME280;41060;47.510;8.680;2024-01-30T00:34:11;98621.69;;;2.23;60.78
55171;BME280;41060;47.510;8.680;2024-01-30T00:36:38;98627.97;;;2.13;61.17
55171;BME280;41060;47.510;8.680;2024-01-30T00:39:05;98629.84;;;2.08;61.22
55171;BME280;41060;47.510;8.680;2024-01-30T00:41:35;98629.34;;;1.91;61.46
55171;BME280;41060;47.510;8.680;2024-01-30T00:44:02;98619.44;;;1.65;61.51
55171;BME280;41060;47.510;8.680;2024-01-30T00:46:30;98634.13;;;1.70;61.75
55171;BME280;41060;47.510;8.680;2024-01-30T00:48:56;98627.91;;;1.76;61.84
55171;BME280;41060;47.510;8.680;2024-01-30T00:51:23;98627.41;;;2.00;60.94
55171;BME280;41060;47.510;8.680;2024-01-30T00:53:50;98626.22;;;2.15;60.56
55171;BME280;41060;47.510;8.680;2024-01-30T00:56:17;98623.50;;;2.18;59.94
55171;BME280;41060;47.510;8.680;2024-01-30T00:58:45;98618.81;;;2.32;60.70
55171;BME280;41060;47.510;8.680;2024-01-30T01:01:12;98609.31;;;2.30;60.04
55171;BME280;41060;47.510;8.680;2024-01-30T01:03:41;98618.38;;;2.52;59.26
55171;BME280;41060;47.510;8.680;2024-01-30T01:06:09;98631.63;;;2.44;59.98
55171;BME280;41060;47.510;8.680;2024-01-30T01:08:36;98617.03;;;2.34;59.74
55171;BME280;41060;47.510;8.680;2024-01-30T01:11:03;98633.75;;;2.29;59.68
55171;BME280;41060;47.510;8.680;2024-01-30T01:13:29;98624.19;;;2.26;60.28
55171;BME280;41060;47.510;8.680;2024-01-30T01:15:58;98629.22;;;2.35;59.79
55171;BME280;41060;47.510;8.680;2024-01-30T01:18:25;98628.94;;;2.47;59.51
55171;BME280;41060;47.510;8.680;2024-01-30T01:20:52;98625.28;;;2.54;58.94
55171;BME280;41060;47.510;8.680;2024-01-30T01:23:19;98632.72;;;2.36;59.67
55171;BME280;41060;47.510;8.680;2024-01-30T01:25:46;98629.03;;;2.44;59.80
55171;BME280;41060;47.510;8.680;2024-01-30T01:28:12;98619.25;;;2.52;59.25
55171;BME280;41060;47.510;8.680;2024-01-30T01:30:42;98621.91;;;2.51;59.05
55171;BME280;41060;47.510;8.680;2024-01-30T01:33:10;98628.25;;;2.39;59.36
55171;BME280;41060;47.510;8.680;2024-01-30T01:35:40;98622.03;;;2.45;59.56
55171;BME280;41060;47.510;8.680;2024-01-30T01:38:06;98626.22;;;2.52;59.85
55171;BME280;41060;47.510;8.680;2024-01-30T01:40:33;98609.47;;;2.24;59.47
55171;BME280;41060;47.510;8.680;2024-01-30T01:43:03;98624.16;;;2.29;59.43
55171;BME280;41060;47.510;8.680;2024-01-30T01:45:30;98622.22;;;2.37;59.53
55171;BME280;41060;47.510;8.680;2024-01-30T01:47:56;98620.72;;;2.26;59.26
55171;BME280;41060;47.510;8.680;2024-01-30T01:50:25;98626.53;;;2.00;60.54
55171;BME280;41060;47.510;8.680;2024-01-30T01:52:52;98622.53;;;1.84;60.84
55171;BME280;41060;47.510;8.680;2024-01-30T01:55:20;98620.78;;;1.84;61.83
55171;BME280;41060;47.510;8.680;2024-01-30T01:57:50;98619.75;;;1.91;60.63
55171;BME280;41060;47.510;8.680;2024-01-30T02:00:17;98620.88;;;2.19;59.81
55171;BME280;41060;47.510;8.680;2024-01-30T02:02:45;98622.31;;;2.33;59.43
55171;BME280;41060;47.510;8.680;2024-01-30T02:05:13;98617.19;;;2.28;59.05
55171;BME280;41060;47.510;8.680;2024-01-30T02:07:41;98622.03;;;2.06;59.87
55171;BME280;41060;47.510;8.680;2024-01-30T02:10:09;98614.03;;;2.14;58.92
55171;BME280;41060;47.510;8.680;2024-01-30T02:12:37;98628.41;;;2.32;59.75
55171;BME280;41060;47.510;8.680;2024-01-30T02:15:05;98625.22;;;2.19;58.44
55171;BME280;41060;47.510;8.680;2024-01-30T02:17:33;98622.78;;;2.11;58.66
55171;BME280;41060;47.510;8.680;2024-01-30T02:20:00;98631.28;;;2.21;58.98
55171;BME280;41060;47.510;8.680;2024-01-30T02:22:30;98626.66;;;2.32;58.57
55171;BME280;41060;47.510;8.680;2024-01-30T02:24:58;98624.72;;;2.42;58.35
55171;BME280;41060;47.510;8.680;2024-01-30T02:27:28;98623.59;;;2.53;58.37
55171;BME280;41060;47.510;8.680;2024-01-30T02:29:55;98624.56;;;2.48;58.47
55171;BME280;41060;47.510;8.680;2024-01-30T02:32:21;98622.03;;;2.45;58.28
55171;BME280;41060;47.510;8.680;2024-01-30T02:34:49;98623.09;;;2.36;58.30
55171;BME280;41060;47.510;8.680;2024-01-30T02:37:16;98622.81;;;2.48;58.42
55171;BME280;41060;47.510;8.680;2024-01-30T02:39:44;98628.84;;;2.52;57.93
55171;BME280;41060;47.510;8.680;2024-01-30T02:42:11;98624.91;;;2.33;58.29
55171;BME280;41060;47.510;8.680;2024-01-30T02:44:37;98626.00;;;2.24;58.88
55171;BME280;41060;47.510;8.680;2024-01-30T02:47:04;98627.31;;;2.03;59.46
55171;BME280;41060;47.510;8.680;2024-01-30T02:49:31;98603.41;;;1.82;59.50
55171;BME280;41060;47.510;8.680;2024-01-30T02:51:58;98625.94;;;1.87;60.02
55171;BME280;41060;47.510;8.680;2024-01-30T02:54:24;98617.56;;;1.71;59.45
55171;BME280;41060;47.510;8.680;2024-01-30T02:56:53;98622.84;;;1.68;60.72
55171;BME280;41060;47.510;8.680;2024-01-30T02:59:19;98613.50;;;1.57;60.48
55171;BME280;41060;47.510;8.680;2024-01-30T03:01:46;98618.28;;;1.79;60.62
55171;BME280;41060;47.510;8.680;2024-01-30T03:04:13;98616.97;;;1.99;59.80
55171;BME280;41060;47.510;8.680;2024-01-30T03:06:44;98613.22;;;2.10;59.44
55171;BME280;41060;47.510;8.680;2024-01-30T03:09:11;98612.91;;;1.86;59.43
55171;BME280;41060;47.510;8.680;2024-01-30T03:11:39;98613.78;;;1.85;59.65
55171;BME280;41060;47.510;8.680;2024-01-30T03:14:07;98610.16;;;1.92;59.60
55171;BME280;41060;47.510;8.680;2024-01-30T03:16:38;98606.56;;;1.96;59.91
55171;BME280;41060;47.510;8.680;2024-01-30T03:19:06;98587.03;;;1.73;59.23
55171;BME280;41060;47.510;8.680;2024-01-30T03:21:33;98605.69;;;1.97;59.64
55171;BME280;41060;47.510;8.680;2024-01-30T03:23:59;98610.59;;;2.10;59.22
55171;BME280;41060;47.510;8.680;2024-01-30T03:26:26;98603.44;;;2.20;58.96
55171;BME280;41060;47.510;8.680;2024-01-30T03:28:53;98601.44;;;2.31;58.46
55171;BME280;41060;47.510;8.680;2024-01-30T03:31:21;98604.31;;;2.19;58.53
55171;BME280;41060;47.510;8.680;2024-01-30T03:33:48;98605.94;;;2.25;57.89
55171;BME280;41060;47.510;8.680;2024-01-30T03:36:15;98614.53;;;2.31;57.83
55171;BME280;41060;47.510;8.680;2024-01-30T03:38:42;98612.25;;;2.16;57.86
55171;BME280;41060;47.510;8.680;2024-01-30T03:41:09;98609.75;;;2.10;58.59
55171;BME280;41060;47.510;8.680;2024-01-30T03:43:36;98614.06;;;2.12;58.34
55171;BME280;41060;47.510;8.680;2024-01-30T03:46:03;98610.59;;;2.12;58.64
55171;BME280;41060;47.510;8.680;2024-01-30T03:48:32;98616.38;;;2.25;58.15
55171;BME280;41060;47.510;8.680;2024-01-30T03:50:58;98611.84;;;2.33;58.33
55171;BME280;41060;47.510;8.680;2024-01-30T03:53:25;98612.53;;;2.41;57.70
55171;BME280;41060;47.510;8.680;2024-01-30T03:55:53;98607.28;;;2.42;56.97
55171;BME280;41060;47.510;8.680;2024-01-30T03:58:19;98610.44;;;2.18;57.67
55171;BME280;41060;47.510;8.680;2024-01-30T04:00:48;98621.88;;;1.72;58.91
55171;BME280;41060;47.510;8.680;2024-01-30T04:03:16;98614.41;;;1.54;60.11
55171;BME280;41060;47.510;8.680;2024-01-30T04:05:45;98616.19;;;1.52;60.18
55171;BME280;41060;47.510;8.680;2024-01-30T04:08:11;98607.50;;;1.52;60.82
55171;BME280;41060;47.510;8.680;2024-01-30T04:10:40;98609.34;;;1.47;60.40
55171;BME280;41060;47.510;8.680;2024-01-30T04:13:06;98614.72;;;1.39;59.92
55171;BME280;41060;47.510;8.680;2024-01-30T04:15:33;98621.81;;;1.31;61.04
55171;BME280;41060;47.510;8.680;2024-01-30T04:18:03;98619.28;;;1.28;60.08
55171;BME280;41060;47.510;8.680;2024-01-30T04:20:30;98620.38;;;1.15;60.32
55171;BME280;41060;47.510;8.680;2024-01-30T04:22:58;98622.94;;;1.18;61.40
55171;BME280;41060;47.510;8.680;2024-01-30T04:25:27;98619.34;;;1.23;60.55
55171;BME280;41060;47.510;8.680;2024-01-30T04:27:55;98616.59;;;1.31;60.50
55171;BME280;41060;47.510;8.680;2024-01-30T04:30:22;98615.13;;;1.18;59.85
55171;BME280;41060;47.510;8.680;2024-01-30T04:32:49;98615.25;;;1.10;61.44
55171;BME280;41060;47.510;8.680;2024-01-30T04:35:16;98617.63;;;1.24;60.71
55171;BME280;41060;47.510;8.680;2024-01-30T04:37:43;98613.06;;;1.35;59.78
55171;BME280;41060;47.510;8.680;2024-01-30T04:40:12;98618.59;;;1.18;60.67
55171;BME280;41060;47.510;8.680;2024-01-30T04:42:39;98620.25;;;1.22;59.81
55171;BME280;41060;47.510;8.680;2024-01-30T04:45:06;98617.84;;;1.12;60.36
55171;BME280;41060;47.510;8.680;2024-01-30T04:47:33;98614.28;;;1.16;60.20
55171;BME280;41060;47.510;8.680;2024-01-30T04:50:01;98615.34;;;1.06;59.93
55171;BME280;41060;47.510;8.680;2024-01-30T04:52:27;98618.84;;;1.05;59.84
55171;BME280;41060;47.510;8.680;2024-01-30T04:54:55;98611.81;;;1.08;60.10
55171;BME280;41060;47.510;8.680;2024-01-30T04:57:23;98619.88;;;0.94;60.52
55171;BME280;41060;47.510;8.680;2024-01-30T04:59:49;98618.00;;;1.03;60.37
55171;BME280;41060;47.510;8.680;2024-01-30T05:02:16;98619.78;;;1.00;59.84
55171;BME280;41060;47.510;8.680;2024-01-30T05:04:46;98624.78;;;1.13;60.07
55171;BME280;41060;47.510;8.680;2024-01-30T05:07:12;98622.88;;;1.21;59.88
55171;BME280;41060;47.510;8.680;2024-01-30T05:09:40;98623.41;;;1.39;58.87
55171;BME280;41060;47.510;8.680;2024-01-30T05:12:07;98628.66;;;1.36;58.88
55171;BME280;41060;47.510;8.680;2024-01-30T05:14:35;98624.59;;;1.22;58.92
55171;BME280;41060;47.510;8.680;2024-01-30T05:17:02;98623.69;;;1.24;59.60
55171;BME280;41060;47.510;8.680;2024-01-30T05:19:29;98621.53;;;1.46;58.92
55171;BME280;41060;47.510;8.680;2024-01-30T05:21:56;98628.22;;;1.61;58.29
55171;BME280;41060;47.510;8.680;2024-01-30T05:24:23;98634.53;;;1.49;58.81
55171;BME280;41060;47.510;8.680;2024-01-30T05:26:49;98629.78;;;1.25;58.82
55171;BME280;41060;47.510;8.680;2024-01-30T05:29:16;98635.28;;;1.08;59.59
55171;BME280;41060;47.510;8.680;2024-01-30T05:31:45;98640.19;;;1.26;60.96
55171;BME280;41060;47.510;8.680;2024-01-30T05:34:11;98632.22;;;1.34;62.33
55171;BME280;41060;47.510;8.680;2024-01-30T05:36:38;98629.50;;;1.40;60.76
55171;BME280;41060;47.510;8.680;2024-01-30T05:39:05;98637.47;;;1.32;60.84
55171;BME280;41060;47.510;8.680;2024-01-30T05:41:32;98632.25;;;1.31;60.13
55171;BME280;41060;47.510;8.680;2024-01-30T05:43:59;98638.22;;;1.37;60.35
55171;BME280;41060;47.510;8.680;2024-01-30T05:46:26;98640.06;;;1.32;60.15
55171;BME280;41060;47.510;8.680;2024-01-30T05:48:54;98631.25;;;1.38;59.05
55171;BME280;41060;47.510;8.680;2024-01-30T05:51:21;98629.00;;;1.20;59.39
55171;BME280;41060;47.510;8.680;2024-01-30T05:53:48;98642.06;;;1.18;59.52
55171;BME280;41060;47.510;8.680;2024-01-30T05:56:15;98641.38;;;1.09;59.52
55171;BME280;41060;47.510;8.680;2024-01-30T05:58:41;98640.91;;;1.34;58.95
55171;BME280;41060;47.510;8.680;2024-01-30T06:01:09;98645.00;;;1.48;59.73
55171;BME280;41060;47.510;8.680;2024-01-30T06:03:36;98634.31;;;1.60;58.50
55171;BME280;41060;47.510;8.680;2024-01-30T06:06:08;98636.22;;;1.50;58.84
55171;BME280;41060;47.510;8.680;2024-01-30T06:08:35;98639.97;;;1.37;59.49
55171;BME280;41060;47.510;8.680;2024-01-30T06:11:02;98647.03;;;1.32;59.70
55171;BME280;41060;47.510;8.680;2024-01-30T06:13:29;98639.22;;;1.32;59.18
55171;BME280;41060;47.510;8.680;2024-01-30T06:15:59;98639.44;;;1.20;60.08
55171;BME280;41060;47.510;8.680;2024-01-30T06:18:25;98643.69;;;1.24;60.64
55171;BME280;41060;47.510;8.680;2024-01-30T06:20:52;98640.31;;;1.20;60.63
55171;BME280;41060;47.510;8.680;2024-01-30T06:23:21;98630.22;;;0.99;59.95
55171;BME280;41060;47.510;8.680;2024-01-30T06:25:47;98647.75;;;0.91;61.56
55171;BME280;41060;47.510;8.680;2024-01-30T06:28:14;98631.53;;;0.75;61.72
55171;BME280;41060;47.510;8.680;2024-01-30T06:30:42;98651.19;;;0.93;61.44
55171;BME280;41060;47.510;8.680;2024-01-30T06:33:12;98654.66;;;0.95;60.97
55171;BME280;41060;47.510;8.680;2024-01-30T06:35:39;98658.97;;;0.96;60.70
55171;BME280;41060;47.510;8.680;2024-01-30T06:38:06;98654.75;;;0.90;61.11
55171;BME280;41060;47.510;8.680;2024-01-30T06:40:34;98648.69;;;0.88;60.86
55171;BME280;41060;47.510;8.680;2024-01-30T06:43:01;98653.81;;;0.91;60.71
55171;BME280;41060;47.510;8.680;2024-01-30T06:45:28;98655.66;;;0.86;61.23
55171;BME280;41060;47.510;8.680;2024-01-30T06:47:54;98654.63;;;0.98;60.88
55171;BME280;41060;47.510;8.680;2024-01-30T06:50:23;98654.53;;;1.01;61.05
55171;BME280;41060;47.510;8.680;2024-01-30T06:52:50;98658.03;;;1.00;60.92
55171;BME280;41060;47.510;8.680;2024-01-30T06:55:17;98658.06;;;0.98;61.56
55171;BME280;41060;47.510;8.680;2024-01-30T06:57:48;98664.13;;;1.00;61.51
55171;BME280;41060;47.510;8.680;2024-01-30T07:00:17;98662.31;;;1.06;61.26
55171;BME280;41060;47.510;8.680;2024-01-30T07:02:45;98663.28;;;0.98;61.39
55171;BME280;41060;47.510;8.680;2024-01-30T07:05:13;98663.19;;;1.05;61.68
55171;BME280;41060;47.510;8.680;2024-01-30T07:07:41;98671.09;;;0.98;61.12
55171;BME280;41060;47.510;8.680;2024-01-30T07:10:08;98668.34;;;1.08;61.42
55171;BME280;41060;47.510;8.680;2024-01-30T07:12:35;98678.72;;;1.12;61.47
55171;BME280;41060;47.510;8.680;2024-01-30T07:15:04;98667.38;;;1.13;60.72
55171;BME280;41060;47.510;8.680;2024-01-30T07:17:33;98677.84;;;1.12;61.47
55171;BME280;41060;47.510;8.680;2024-01-30T07:20:00;98669.97;;;1.13;60.92
55171;BME280;41060;47.510;8.680;2024-01-30T07:22:27;98672.31;;;1.28;60.71
55171;BME280;41060;47.510;8.680;2024-01-30T07:24:53;98666.47;;;1.16;60.69
55171;BME280;41060;47.510;8.680;2024-01-30T07:27:20;98679.72;;;1.05;60.97
55171;BME280;41060;47.510;8.680;2024-01-30T07:29:47;98672.69;;;1.09;60.84
55171;BME280;41060;47.510;8.680;2024-01-30T07:32:15;98674.63;;;0.96;60.95
55171;BME280;41060;47.510;8.680;2024-01-30T07:34:42;98677.09;;;1.05;61.17
55171;BME280;41060;47.510;8.680;2024-01-30T07:37:12;98672.66;;;1.10;61.12
55171;BME280;41060;47.510;8.680;2024-01-30T07:39:43;98690.09;;;1.07;61.53
55171;BME280;41060;47.510;8.680;2024-01-30T07:42:11;98684.00;;;1.08;60.39
55171;BME280;41060;47.510;8.680;2024-01-30T07:44:37;98682.00;;;1.22;60.42
55171;BME280;41060;47.510;8.680;2024-01-30T07:47:04;98687.41;;;1.13;61.14
55171;BME280;41060;47.510;8.680;2024-01-30T07:49:33;98677.91;;;1.07;60.29
55171;BME280;41060;47.510;8.680;2024-01-30T07:52:00;98697.97;;;1.05;61.09
55171;BME280;41060;47.510;8.680;2024-01-30T07:54:27;98697.16;;;1.00;60.75
55171;BME280;41060;47.510;8.680;2024-01-30T07:57:02;98695.34;;;1.05;61.41
55171;BME280;41060;47.510;8.680;2024-01-30T07:59:29;98690.06;;;1.10;60.39
55171;BME280;41060;47.510;8.680;2024-01-30T08:01:55;98683.72;;;1.23;59.83
55171;BME280;41060;47.510;8.680;2024-01-30T08:04:22;98682.56;;;1.39;59.66
55171;BME280;41060;47.510;8.680;2024-01-30T08:06:50;98692.63;;;1.60;59.41
55171;BME280;41060;47.510;8.680;2024-01-30T08:09:17;98680.16;;;1.74;58.61
55171;BME280;41060;47.510;8.680;2024-01-30T08:11:44;98690.34;;;1.88;57.94
55171;BME280;41060;47.510;8.680;2024-01-30T08:14:11;98696.94;;;1.63;59.34
55171;BME280;41060;47.510;8.680;2024-01-30T08:16:39;98685.22;;;1.37;59.61
55171;BME280;41060;47.510;8.680;2024-01-30T08:19:06;98689.91;;;1.19;59.63
55171;BME280;41060;47.510;8.680;2024-01-30T08:21:32;98703.19;;;1.04;60.75
55171;BME280;41060;47.510;8.680;2024-01-30T08:24:03;98703.19;;;1.04;60.21
55171;BME280;41060;47.510;8.680;2024-01-30T08:26:31;98701.59;;;0.95;61.37
55171;BME280;41060;47.510;8.680;2024-01-30T08:28:57;98711.19;;;0.91;61.11
55171;BME280;41060;47.510;8.680;2024-01-30T08:31:24;98712.25;;;0.81;61.02
55171;BME280;41060;47.510;8.680;2024-01-30T08:33:52;98709.50;;;0.90;60.82
55171;BME280;41060;47.510;8.680;2024-01-30T08:36:19;98704.88;;;1.08;60.94
55171;BME280;41060;47.510;8.680;2024-01-30T08:38:46;98698.66;;;1.15;60.66
55171;BME280;41060;47.510;8.680;2024-01-30T08:41:15;98702.28;;;1.06;60.60
55171;BME280;41060;47.510;8.680;2024-01-30T08:43:41;98707.53;;;1.05;61.01
55171;BME280;41060;47.510;8.680;2024-01-30T08:46:10;98712.00;;;0.98;61.31
55171;BME280;41060;47.510;8.680;2024-01-30T08:48:39;98701.28;;;1.13;61.08
55171;BME280;41060;47.510;8.680;2024-01-30T08:51:06;98704.88;;;1.08;60.32
55171;BME280;41060;47.510;8.680;2024-01-30T08:53:34;98698.72;;;1.12;60.94
55171;BME280;41060;47.510;8.680;2024-01-30T08:56:02;98703.97;;;1.09;61.15
55171;BME280;41060;47.510;8.680;2024-01-30T08:58:30;98711.09;;;0.99;60.96
55171;BME280;41060;47.510;8.680;2024-01-30T09:00:57;98703.25;;;1.00;61.64
55171;BME280;41060;47.510;8.680;2024-01-30T09:03:24;98703.06;;;1.13;60.45
55171;BME280;41060;47.510;8.680;2024-01-30T09:05:50;98702.81;;;1.26;61.34
55171;BME280;41060;47.510;8.680;2024-01-30T09:08:17;98700.13;;;1.29;60.77
55171;BME280;41060;47.510;8.680;2024-01-30T09:10:44;98705.44;;;1.26;60.85
55171;BME280;41060;47.510;8.680;2024-01-30T09:13:11;98705.91;;;1.48;60.56
55171;BME280;41060;47.510;8.680;2024-01-30T09:15:39;98706.78;;;1.47;60.37
55171;BME280;41060;47.510;8.680;2024-01-30T09:18:06;98713.06;;;1.35;61.02
55171;BME280;41060;47.510;8.680;2024-01-30T09:20:33;98705.97;;;1.44;61.14
55171;BME280;41060;47.510;8.680;2024-01-30T09:23:01;98705.81;;;1.53;61.11
55171;BME280;41060;47.510;8.680;2024-01-30T09:25:29;98701.28;;;1.62;60.93
55171;BME280;41060;47.510;8.680;2024-01-30T09:27:55;98701.88;;;1.78;61.67
55171;BME280;41060;47.510;8.680;2024-01-30T09:30:22;98700.03;;;1.83;61.27
55171;BME280;41060;47.510;8.680;2024-01-30T09:32:50;98705.56;;;1.66;61.18
55171;BME280;41060;47.510;8.680;2024-01-30T09:35:17;98710.91;;;1.60;61.84
55171;BME280;41060;47.510;8.680;2024-01-30T09:37:46;98704.66;;;1.67;62.17
55171;BME280;41060;47.510;8.680;2024-01-30T09:40:14;98709.31;;;1.96;61.04
55171;BME280;41060;47.510;8.680;2024-01-30T09:42:45;98711.75;;;2.07;60.37
55171;BME280;41060;47.510;8.680;2024-01-30T09:45:13;98718.16;;;1.91;60.65
55171;BME280;41060;47.510;8.680;2024-01-30T09:47:42;98709.75;;;1.75;60.80
55171;BME280;41060;47.510;8.680;2024-01-30T09:50:12;98634.94;;;1.28;61.76
55171;BME280;41060;47.510;8.680;2024-01-30T09:52:42;98719.06;;;1.88;61.51
55171;BME280;41060;47.510;8.680;2024-01-30T09:55:10;98690.19;;;1.96;61.70
55171;BME280;41060;47.510;8.680;2024-01-30T09:57:37;98721.34;;;2.06;61.59
55171;BME280;41060;47.510;8.680;2024-01-30T10:00:07;98716.88;;;2.10;61.53
55171;BME280;41060;47.510;8.680;2024-01-30T10:02:34;98713.69;;;2.39;61.41
55171;BME280;41060;47.510;8.680;2024-01-30T10:05:01;98720.91;;;2.66;61.30
55171;BME280;41060;47.510;8.680;2024-01-30T10:07:30;98714.53;;;2.78;61.04
55171;BME280;41060;47.510;8.680;2024-01-30T10:09:57;98712.25;;;2.64;61.31
55171;BME280;41060;47.510;8.680;2024-01-30T10:12:25;98721.09;;;2.58;61.18
55171;BME280;41060;47.510;8.680;2024-01-30T10:14:53;98711.13;;;2.76;60.65
55171;BME280;41060;47.510;8.680;2024-01-30T10:17:20;98710.16;;;2.78;60.45
55171;BME280;41060;47.510;8.680;2024-01-30T10:19:47;98714.66;;;3.10;60.62
55171;BME280;41060;47.510;8.680;2024-01-30T10:22:15;98715.75;;;3.35;60.40
55171;BME280;41060;47.510;8.680;2024-01-30T10:24:43;98707.63;;;3.48;60.01
55171;BME280;41060;47.510;8.680;2024-01-30T10:27:10;98703.44;;;3.41;59.77
55171;BME280;41060;47.510;8.680;2024-01-30T10:29:37;98702.72;;;3.34;61.53
55171;BME280;41060;47.510;8.680;2024-01-30T10:32:05;98698.22;;;3.41;60.76
55171;BME280;41060;47.510;8.680;2024-01-30T10:34:32;98705.50;;;3.62;60.08
55171;BME280;41060;47.510;8.680;2024-01-30T10:37:01;98696.53;;;3.70;59.79
55171;BME280;41060;47.510;8.680;2024-01-30T10:39:29;98696.81;;;3.92;59.15
55171;BME280;41060;47.510;8.680;2024-01-30T10:42:04;98690.50;;;3.99;60.16
55171;BME280;41060;47.510;8.680;2024-01-30T10:44:39;98694.34;;;4.17;60.24
55171;BME280;41060;47.510;8.680;2024-01-30T10:47:18;98689.13;;;4.46;58.95
55171;BME280;41060;47.510;8.680;2024-01-30T10:49:48;98689.72;;;4.55;58.94
55171;BME280;41060;47.510;8.680;2024-01-30T10:52:16;98673.75;;;4.62;58.63
55171;BME280;41060;47.510;8.680;2024-01-30T10:54:44;98585.28;;;4.11;57.86
55171;BME280;41060;47.510;8.680;2024-01-30T10:57:13;98675.19;;;4.72;58.94
55171;BME280;41060;47.510;8.680;2024-01-30T10:59:43;98670.47;;;4.83;58.19
55171;BME280;41060;47.510;8.680;2024-01-30T11:02:11;98666.81;;;5.14;58.00
55171;BME280;41060;47.510;8.680;2024-01-30T11:04:40;98662.47;;;5.39;57.22
55171;BME280;41060;47.510;8.680;2024-01-30T11:07:16;98652.97;;;5.60;56.62
55171;BME280;41060;47.510;8.680;2024-01-30T11:09:59;98653.06;;;5.83;56.85
55171;BME280;41060;47.510;8.680;2024-01-30T11:12:29;98652.56;;;5.97;55.79
55171;BME280;41060;47.510;8.680;2024-01-30T11:15:02;98646.97;;;6.29;55.44
55171;BME280;41060;47.510;8.680;2024-01-30T11:17:40;98648.75;;;6.51;54.64
55171;BME280;41060;47.510;8.680;2024-01-30T11:20:10;98649.59;;;6.29;55.75
55171;BME280;41060;47.510;8.680;2024-01-30T11:22:37;98639.00;;;6.31;55.66
55171;BME280;41060;47.510;8.680;2024-01-30T11:25:04;98642.72;;;6.25;55.48
55171;BME280;41060;47.510;8.680;2024-01-30T11:27:32;98646.44;;;5.96;56.13
55171;BME280;41060;47.510;8.680;2024-01-30T11:30:01;98634.47;;;5.88;56.20
55171;BME280;41060;47.510;8.680;2024-01-30T11:32:28;98632.44;;;6.19;56.11
55171;BME280;41060;47.510;8.680;2024-01-30T11:34:55;98627.53;;;6.32;55.49
55171;BME280;41060;47.510;8.680;2024-01-30T11:37:25;98628.38;;;6.56;55.45
55171;BME280;41060;47.510;8.680;2024-01-30T11:39:53;98630.63;;;6.43;55.91
55171;BME280;41060;47.510;8.680;2024-01-30T11:42:22;98630.69;;;6.41;56.01
55171;BME280;41060;47.510;8.680;2024-01-30T11:44:51;98613.69;;;6.50;55.74
55171;BME280;41060;47.510;8.680;2024-01-30T11:47:18;98623.09;;;6.56;55.95
55171;BME280;41060;47.510;8.680;2024-01-30T11:49:45;98624.22;;;6.72;55.77
55171;BME280;41060;47.510;8.680;2024-01-30T11:52:13;98617.13;;;6.74;56.10
55171;BME280;41060;47.510;8.680;2024-01-30T11:54:39;98620.56;;;6.76;55.95
55171;BME280;41060;47.510;8.680;2024-01-30T11:57:07;98622.44;;;6.72;56.00
55171;BME280;41060;47.510;8.680;2024-01-30T11:59:33;98615.59;;;6.68;55.95
55171;BME280;41060;47.510;8.680;2024-01-30T12:02:01;98616.00;;;6.58;56.66
55171;BME280;41060;47.510;8.680;2024-01-30T12:04:29;98621.38;;;6.55;56.49
55171;BME280;41060;47.510;8.680;2024-01-30T12:06:56;98624.47;;;6.66;56.27
55171;BME280;41060;47.510;8.680;2024-01-30T12:09:22;98616.25;;;6.73;55.89
55171;BME280;41060;47.510;8.680;2024-01-30T12:11:50;98617.63;;;6.83;55.61
55171;BME280;41060;47.510;8.680;2024-01-30T12:14:17;98610.63;;;6.82;55.76
55171;BME280;41060;47.510;8.680;2024-01-30T12:16:48;98606.38;;;6.78;56.55
55171;BME280;41060;47.510;8.680;2024-01-30T12:19:22;98603.50;;;6.84;56.17
55171;BME280;41060;47.510;8.680;2024-01-30T12:21:54;98553.44;;;6.64;55.85
55171;BME280;41060;47.510;8.680;2024-01-30T12:24:22;98593.09;;;7.03;55.63
55171;BME280;41060;47.510;8.680;2024-01-30T12:26:48;98594.19;;;6.98;56.85
55171;BME280;41060;47.510;8.680;2024-01-30T12:29:15;98591.75;;;7.13;56.13
55171;BME280;41060;47.510;8.680;2024-01-30T12:31:42;98588.75;;;7.43;55.38
55171;BME280;41060;47.510;8.680;2024-01-30T12:34:13;98585.34;;;7.59;55.05
55171;BME280;41060;47.510;8.680;2024-01-30T12:36:44;98581.16;;;7.76;54.51
55171;BME280;41060;47.510;8.680;2024-01-30T12:39:11;98570.88;;;7.88;54.42
55171;BME280;41060;47.510;8.680;2024-01-30T12:41:39;98568.47;;;8.02;54.51
55171;BME280;41060;47.510;8.680;2024-01-30T12:44:07;98574.53;;;8.05;54.45
55171;BME280;41060;47.510;8.680;2024-01-30T12:46:34;98577.00;;;8.09;54.32
55171;BME280;41060;47.510;8.680;2024-01-30T12:49:01;98574.75;;;8.00;54.11
55171;BME280;41060;47.510;8.680;2024-01-30T12:51:28;98577.34;;;8.02;54.18
55171;BME280;41060;47.510;8.680;2024-01-30T12:54:04;98579.88;;;8.03;55.18
55171;BME280;41060;47.510;8.680;2024-01-30T12:56:30;98575.53;;;8.21;53.90
55171;BME280;41060;47.510;8.680;2024-01-30T12:58:58;98576.09;;;8.46;53.90
55171;BME280;41060;47.510;8.680;2024-01-30T13:01:24;98576.19;;;8.62;53.97
55171;BME280;41060;47.510;8.680;2024-01-30T13:03:54;98580.91;;;8.74;54.13
55171;BME280;41060;47.510;8.680;2024-01-30T13:06:23;98571.44;;;8.87;53.93
55171;BME280;41060;47.510;8.680;2024-01-30T13:08:49;98574.56;;;8.95;53.79
55171;BME280;41060;47.510;8.680;2024-01-30T13:11:17;98573.38;;;9.01;53.56
55171;BME280;41060;47.510;8.680;2024-01-30T13:13:45;98573.06;;;9.07;53.01